Flight Track Log - Related Links

Times and Time Zones

All times are in EDT time to prevent confusion due to time zone crossing. See the AAL2345 flight status page for this flight to view local times or setup timezone preferences in your user account.

Time Position Orientation Groundspeed Altitude Reporting Facility
EDT Latitude Longitude Course Direction KTS MPH feet Rate Location/Type
Mon 06:36:47 PM 41.9500 -87.9167 246° West 175 201 2,000  Level Chicago TRACON
Mon 06:37:47 PM 41.9500 -88.0000 270° West 230 265 3,400 2,199 Climbing Chicago TRACON
Mon 06:39:28 PM 41.9403 -88.1558 265° West 273 314 7,900 2,466 Climbing Chicago Center
Mon 06:40:00 PM 41.8291 -88.5025 254° West  Level FlightAware Approximate
Mon 06:40:30 PM 41.9356 -88.2572 266° West 276 318 10,100  Level Chicago Center
Mon 06:41:00 PM 41.7953 -88.6554 254° West  Level FlightAware Approximate
Mon 06:41:32 PM 41.9225 -88.3914 263° West 298 343 13,300  Level Chicago Center
Mon 06:42:00 PM 41.7087 -88.7509 246° West  Level Estimated
Mon 06:42:34 PM 41.9075 -88.5042 260° West 310 357 15,400  Level Chicago Center
Mon 06:43:36 PM 41.8683 -88.6233 246° West 347 399 17,200 1,839 Climbing Chicago Center
Mon 06:44:38 PM 41.8353 -88.7489 251° West 359 413 19,200 1,887 Climbing Chicago Center
Mon 06:45:40 PM 41.8011 -88.8783 251° West 370 426 21,100 1,742 Climbing Chicago Center
Mon 06:46:42 PM 41.7603 -89.0333 251° West 373 429 22,800 1,645 Climbing Chicago Center
Mon 06:47:44 PM 41.7250 -89.1656 250° West 379 436 24,500 1,548 Climbing Chicago Center
Mon 06:48:46 PM 41.6906 -89.2997 251° West 383 441 26,000 1,306 Climbing Chicago Center
Mon 06:49:48 PM 41.6533 -89.4361 250° West 392 451 27,200 1,161 Climbing Chicago Center
Mon 06:50:50 PM 41.5781 -89.5342 224° Southwest 416 479 28,400 1,113 Climbing Chicago Center
Mon 06:51:52 PM 41.4461 -89.5583 188° South 436 502 29,500 919 Climbing Chicago Center
Mon 06:52:54 PM 41.3239 -89.5797 187° South 442 509 30,300 780 Climbing Chicago Center
Mon 06:53:55 PM 41.1989 -89.6039 188° South 449 517 31,100 774 Climbing Chicago Center
Mon 06:54:58 PM 41.0719 -89.6267 188° South 456 525 31,900 720 Climbing Chicago Center
Mon 06:56:00 PM 40.9344 -89.6525 188° South 465 535 32,600 871 Climbing Chicago Center
Mon 06:57:02 PM 40.7817 -89.6803 188° South 466 536 33,700 677 Climbing Chicago Center
Mon 06:58:04 PM 40.6567 -89.7039 188° South 460 529 34,000 145 Climbing Chicago Center
Mon 06:59:06 PM 40.5294 -89.7244 187° South 462 532 34,000  Level Chicago Center
Mon 07:00:08 PM 40.3983 -89.7508 189° South 452 520 34,000  Level Chicago Center
Mon 07:01:09 PM 40.2703 -89.7733 188° South 461 531 34,000 49 Level Chicago Center
Mon 07:02:11 PM 40.1442 -89.7967 188° South 457 526 34,100 55 Climbing Chicago Center
Mon 07:02:59 PM 40.0425 -89.8142 188° South 457 526 34,100  Level Kansas City Center
Mon 07:04:01 PM 39.9311 -89.8669 200° South 433 498 34,100 -97 Level Kansas City Center
Mon 07:05:03 PM 39.8417 -89.9667 221° Southwest 424 488 33,900 -97 Descending Kansas City Center
Mon 07:06:05 PM 39.7331 -90.0806 219° Southwest 419 482 33,900 48 Level Kansas City Center
Mon 07:07:07 PM 39.6450 -90.1731 219° Southwest 422 486 34,000 48 Climbing Kansas City Center
Mon 07:08:09 PM 39.5531 -90.2689 219° Southwest 424 488 34,000  Level Kansas City Center
Mon 07:09:11 PM 39.4592 -90.3656 218° Southwest 429 494 34,000 48 Level Kansas City Center
Mon 07:10:13 PM 39.3642 -90.4639 219° Southwest 436 502 34,100 48 Climbing Kansas City Center
Mon 07:11:15 PM 39.2506 -90.5808 219° Southwest 437 503 34,100  Level Kansas City Center
Mon 07:12:17 PM 39.1544 -90.6786 218° Southwest 441 507 34,100  Level Kansas City Center
Mon 07:13:20 PM 39.0619 -90.7731 218° Southwest 434 499 34,100 -48 Level Kansas City Center
Mon 07:14:22 PM 38.9675 -90.8686 218° Southwest 435 501 34,000 -97 Descending Kansas City Center
Mon 07:15:24 PM 38.8731 -90.9639 218° Southwest 436 502 33,900 48 Descending Kansas City Center
Mon 07:16:26 PM 38.7611 -91.0775 218° Southwest 434 499 34,100 48 Climbing Kansas City Center
Mon 07:17:28 PM 38.6672 -91.1711 218° Southwest 431 496 34,000 -98 Descending Kansas City Center
Mon 07:18:29 PM 38.5742 -91.2650 218° Southwest 431 496 33,900  Descending Kansas City Center
Mon 07:19:31 PM 38.4794 -91.3592 218° Southwest 432 497 34,000 97 Climbing Kansas City Center
Mon 07:20:33 PM 38.3725 -91.4617 217° Southwest 430 495 34,100  Climbing Kansas City Center
Mon 07:21:35 PM 38.2778 -91.5558 218° Southwest 430 495 34,000 -48 Descending Kansas City Center
Mon 07:22:37 PM 38.1839 -91.6469 217° Southwest 425 489 34,000  Level Kansas City Center
Mon 07:23:39 PM 38.0908 -91.7394 218° Southwest 422 486 34,000 -48 Level Kansas City Center
Mon 07:24:41 PM 37.9956 -91.8311 217° Southwest 422 486 33,900  Descending Kansas City Center
Mon 07:25:43 PM 37.9008 -91.9258 218° Southwest 428 493 34,000 97 Climbing Kansas City Center
Mon 07:26:45 PM 37.7858 -92.0358 217° Southwest 423 487 34,100 48 Climbing Kansas City Center
Mon 07:27:47 PM 37.6906 -92.1278 217° Southwest 425 489 34,100 -48 Level Kansas City Center
Mon 07:28:49 PM 37.5967 -92.2194 218° Southwest 423 487 34,000 -97 Descending Kansas City Center
Mon 07:29:51 PM 37.5025 -92.3117 218° Southwest 424 488 33,900 -48 Descending Kansas City Center
Mon 07:30:53 PM 37.4078 -92.4036 218° Southwest 427 491 33,900 48 Level Kansas City Center
Mon 07:31:55 PM 37.3122 -92.4925 217° Southwest 425 489 34,000 97 Climbing Kansas City Center
Mon 07:32:57 PM 37.2181 -92.5833 218° Southwest 425 489 34,100 48 Climbing Kansas City Center
Mon 07:33:59 PM 37.1222 -92.6731 217° Southwest 427 491 34,100 -48 Level Kansas City Center
Mon 07:35:01 PM 37.0072 -92.7806 217° Southwest 427 491 34,000 -48 Descending Kansas City Center
Mon 07:36:03 PM 36.9111 -92.8708 217° Southwest 429 494 34,000  Level Kansas City Center
Mon 07:37:05 PM 36.8178 -92.9631 218° Southwest 428 493 34,000  Level Kansas City Center
Mon 07:38:06 PM 36.7217 -93.0542 217° Southwest 430 495 34,000 -49 Level Kansas City Center
Mon 07:39:08 PM 36.6244 -93.1408 216° Southwest 432 497 33,900 -48 Descending Kansas City Center
Mon 07:40:10 PM 36.5281 -93.2364 219° Southwest 436 502 33,900 48 Level Kansas City Center
Mon 07:41:12 PM 36.4317 -93.3317 219° Southwest 440 506 34,000 102 Climbing Kansas City Center
Mon 07:42:08 PM 36.3356 -93.4278 219° Southwest 443 510 34,100 52 Climbing Memphis Center
Mon 07:43:08 PM 36.2353 -93.5219 217° Southwest 448 516 34,100  Level Memphis Center
Mon 07:44:08 PM 36.1347 -93.6208 218° Southwest 455 524 34,100 -50 Level Memphis Center
Mon 07:45:08 PM 36.0364 -93.7144 218° Southwest 455 524 34,000 -50 Descending Memphis Center
Mon 07:46:08 PM 35.9400 -93.8078 218° Southwest 450 518 34,000  Level Memphis Center
Mon 07:47:08 PM 35.8436 -93.8986 217° Southwest 455 524 34,000 -50 Level Memphis Center
Mon 07:48:08 PM 35.7450 -93.9917 217° Southwest 455 524 33,900 -50 Descending Memphis Center
Mon 07:49:08 PM 35.6506 -94.0844 219° Southwest 450 518 33,900  Level Memphis Center
Mon 07:50:08 PM 35.5497 -94.1769 217° Southwest 455 524 33,900 50 Level Memphis Center
Mon 07:51:08 PM 35.4486 -94.2717 217° Southwest 455 524 34,000 100 Climbing Memphis Center
Mon 07:52:08 PM 35.3478 -94.3664 217° Southwest 455 524 34,100 30 Climbing Memphis Center
Mon 07:54:26 PM 35.1075 -94.5939 218° Southwest 457 526 34,100 -30 Level Fort Worth Center
Mon 07:55:26 PM 35.0033 -94.6886 217° Southwest 462 532 34,000 -50 Descending Fort Worth Center
Mon 07:56:26 PM 34.9094 -94.7906 222° Southwest 462 532 34,000 50 Level Fort Worth Center
Mon 07:57:26 PM 34.8219 -94.8867 222° Southwest 462 532 34,100 -250 Climbing Fort Worth Center
Mon 07:58:26 PM 34.7258 -94.9906 222° Southwest 469 540 33,500 -850 Descending Fort Worth Center
Mon 07:59:26 PM 34.6339 -95.0917 222° Southwest 464 534 32,400 -1,400 Descending Fort Worth Center
Mon 08:00:26 PM 34.5336 -95.2003 222° Southwest 464 534 30,700 -1,700 Descending Fort Worth Center
Mon 08:01:26 PM 34.4372 -95.3033 221° Southwest 469 540 29,000 -1,650 Descending Fort Worth Center
Mon 08:02:26 PM 34.3389 -95.4089 222° Southwest 479 551 27,400 -1,650 Descending Fort Worth Center
Mon 08:03:26 PM 34.2403 -95.5142 221° Southwest 479 551 25,700 -1,700 Descending Fort Worth Center
Mon 08:04:26 PM 34.1375 -95.6194 220° Southwest 479 551 24,000 -1,250 Descending Fort Worth Center
Mon 08:05:26 PM 34.0492 -95.7139 222° Southwest 468 539 23,200 -1,400 Descending Fort Worth Center
Mon 08:06:26 PM 33.9567 -95.8158 222° Southwest 454 522 21,200 -2,000 Descending Fort Worth Center
Mon 08:07:26 PM 33.8658 -95.9100 221° Southwest 448 516 19,200 -2,250 Descending Fort Worth Center
Mon 08:08:26 PM 33.7669 -96.0167 222° Southwest 437 503 16,700 -2,200 Descending Fort Worth Center
Mon 08:09:26 PM 33.6803 -96.1056 220° Southwest 432 497 14,800 -2,000 Descending Fort Worth Center
Mon 08:10:26 PM 33.5978 -96.1939 222° Southwest 417 480 12,700 -1,900 Descending Fort Worth Center
Mon 08:11:26 PM 33.5172 -96.2772 221° Southwest 400 460 11,000 -900 Descending Fort Worth Center
Mon 08:12:26 PM 33.4489 -96.3478 221° Southwest 349 402 10,900  Descending Fort Worth Center
Mon 08:13:26 PM 33.3889 -96.4108 221° Southwest 303 349 11,000 -594 Climbing Fort Worth Center
Mon 08:14:07 PM 33.3500 -96.4500 220° Southwest 288 331 9,900 -1,471 Descending Dallas / Fort Worth TRACON
Mon 08:15:08 PM 33.3000 -96.5167 228° Southwest 278 320 8,500 -1,487 Descending Dallas / Fort Worth TRACON
Mon 08:16:04 PM 33.2667 -96.6000 244° Southwest 270 311 7,000 -1,500 Descending Dallas / Fort Worth TRACON
Mon 08:17:08 PM 33.2167 -96.6833 234° Southwest 269 310 5,500 -952 Descending Dallas / Fort Worth TRACON
Mon 08:18:10 PM 33.1833 -96.7500 239° Southwest 264 304 5,000 -259 Descending Dallas / Fort Worth TRACON
Mon 08:19:04 PM 33.1500 -96.8167 239° Southwest 264 304 5,000 -482 Level Dallas / Fort Worth TRACON
Mon 08:20:02 PM 33.1000 -96.8833 228° Southwest 265 305 4,100 -1,059 Descending Dallas / Fort Worth TRACON
Mon 08:21:03 PM 33.0667 -96.9667 245° Southwest 255 293 2,900 -1,180 Descending Dallas / Fort Worth TRACON

Login

Don't have an account? Register now (free) for customized features, flight alerts, and more!